Time;durP1;ratioP1;P1;durP2;ratioP2;P2;SDS_P1;SDS_P2;PMS_P1;PMS_P2;Temp;Humidity;BMP_temperature;BMP_pressure;BME280_temperature;BME280_humidity;BME280_pressure;Samples;Min_cycle;Max_cycle;Signal;HPM_P1;HPM_P2
2023/12/25 00:01:04;;;;;;;2.95;0.68;;;14.00;99.90;;;;;;5005613;28;20029;-86
2023/12/25 00:03:30;;;;;;;2.20;0.60;;;14.00;99.90;;;;;;5025964;28;20136;-86
2023/12/25 00:05:56;;;;;;;1.65;0.40;;;14.00;99.90;;;;;;5017738;28;20079;-85
2023/12/25 00:08:22;;;;;;;2.73;1.07;;;13.80;99.90;;;;;;5016548;28;20482;-87
2023/12/25 00:10:48;;;;;;;2.25;0.50;;;14.00;99.90;;;;;;4998485;28;20025;-86
2023/12/25 00:13:14;;;;;;;1.63;0.50;;;14.00;99.90;;;;;;5013359;28;20025;-86
2023/12/25 00:15:39;;;;;;;2.50;0.50;;;14.00;99.90;;;;;;5018906;28;20248;-85
2023/12/25 00:18:05;;;;;;;0.90;0.40;;;14.00;99.90;;;;;;5014774;28;20062;-88
2023/12/25 00:20:31;;;;;;;3.10;1.00;;;14.00;99.90;;;;;;5009880;28;20029;-88
2023/12/25 00:22:57;;;;;;;0.70;0.40;;;14.00;99.90;;;;;;5012256;28;20040;-86
2023/12/25 00:25:23;;;;;;;0.63;0.43;;;14.00;99.90;;;;;;4996456;28;20394;-86
2023/12/25 00:27:49;;;;;;;0.70;0.50;;;14.00;99.90;;;;;;5032447;28;20029;-85
2023/12/25 00:30:14;;;;;;;0.98;0.50;;;14.00;99.90;;;;;;5015499;28;20020;-85
2023/12/25 00:32:40;;;;;;;2.00;0.70;;;14.00;99.90;;;;;;5006470;28;20053;-86
2023/12/25 00:35:06;;;;;;;0.55;0.40;;;14.00;99.90;;;;;;5011055;28;20478;-85
2023/12/25 00:37:32;;;;;;;1.08;0.50;;;14.00;99.90;;;;;;5002993;28;20597;-86
2023/12/25 00:39:58;;;;;;;0.33;0.33;;;14.00;99.90;;;;;;4987600;28;20025;-85
2023/12/25 00:42:23;;;;;;;0.73;0.50;;;14.10;99.90;;;;;;5017457;28;20044;-86
2023/12/25 00:44:49;;;;;;;0.63;0.40;;;14.10;99.90;;;;;;5017327;28;20532;-85
2023/12/25 00:47:15;;;;;;;1.10;0.40;;;14.10;99.90;;;;;;5007863;28;20033;-86
2023/12/25 00:49:41;;;;;;;1.92;0.63;;;14.10;99.90;;;;;;5004197;28;20142;-85
2023/12/25 00:52:07;;;;;;;0.50;0.40;;;14.10;99.90;;;;;;5032037;28;20052;-86
2023/12/25 00:54:36;;;;;;;0.50;0.47;;;14.10;99.90;;;;;;5019876;28;20143;-85
2023/12/25 00:57:02;;;;;;;0.68;0.30;;;14.20;99.90;;;;;;4992423;28;20029;-86
2023/12/25 00:59:29;;;;;;;0.82;0.45;;;14.20;99.90;;;;;;5000788;28;20025;-88
2023/12/25 01:01:55;;;;;;;0.50;0.38;;;14.20;99.90;;;;;;4990393;28;20029;-86
2023/12/25 01:04:21;;;;;;;0.43;0.30;;;14.20;99.90;;;;;;5025966;28;20040;-88
2023/12/25 01:06:47;;;;;;;1.05;0.40;;;14.20;99.90;;;;;;5006227;28;20029;-87
2023/12/25 01:09:13;;;;;;;0.70;0.40;;;14.20;99.90;;;;;;5023438;28;20021;-86
2023/12/25 01:11:42;;;;;;;0.55;0.43;;;14.20;99.90;;;;;;5004559;28;20333;-87
2023/12/25 01:14:09;;;;;;;1.40;0.40;;;14.20;99.90;;;;;;5018599;28;20476;-86
2023/12/25 01:16:35;;;;;;;1.25;0.50;;;14.20;99.90;;;;;;5001019;28;20409;-87
2023/12/25 01:19:02;;;;;;;0.47;0.40;;;;;;;;;;5023230;28;20388;-86
2023/12/25 01:21:27;;;;;;;0.32;0.30;;;14.20;99.90;;;;;;5011733;28;20506;-86
2023/12/25 01:23:53;;;;;;;0.35;0.30;;;14.10;99.90;;;;;;4998724;28;20484;-86
2023/12/25 01:26:19;;;;;;;0.40;0.40;;;14.10;99.90;;;;;;5009683;28;20020;-87
2023/12/25 01:28:45;;;;;;;1.23;0.30;;;14.10;99.90;;;;;;5004447;28;20115;-86
2023/12/25 01:31:11;;;;;;;0.50;0.20;;;14.00;99.90;;;;;;5013501;28;20017;-87
2023/12/25 01:33:36;;;;;;;1.10;0.40;;;14.00;99.90;;;;;;4993086;28;20156;-88
2023/12/25 01:36:03;;;;;;;0.88;0.40;;;14.00;99.90;;;;;;5000910;28;20317;-87
2023/12/25 01:38:29;;;;;;;0.50;0.30;;;14.00;99.90;;;;;;5009872;28;20446;-88
2023/12/25 01:40:54;;;;;;;0.20;0.20;;;14.00;99.90;;;;;;4977423;28;20033;-87
2023/12/25 01:43:20;;;;;;;0.57;0.50;;;14.00;99.90;;;;;;5000315;28;20025;-87
2023/12/25 01:45:46;;;;;;;0.40;0.40;;;13.90;99.90;;;;;;5016796;28;20067;-87
2023/12/25 01:48:12;;;;;;;0.77;0.40;;;14.00;99.90;;;;;;5015095;28;20029;-86
2023/12/25 01:50:39;;;;;;;1.17;0.45;;;13.90;99.90;;;;;;4991722;28;20025;-88
2023/12/25 01:53:05;;;;;;;1.25;0.50;;;13.90;99.90;;;;;;5018839;28;20746;-88
2023/12/25 01:55:32;;;;;;;1.20;0.40;;;14.00;99.90;;;;;;5000078;28;20449;-85
2023/12/25 01:57:59;;;;;;;0.85;0.50;;;13.60;99.90;;;;;;4991967;28;20245;-89
2023/12/25 02:00:26;;;;;;;0.70;0.50;;;13.90;99.90;;;;;;4999840;28;20013;-89
2023/12/25 02:02:52;;;;;;;1.50;0.50;;;13.90;99.90;;;;;;4992766;28;20431;-90
2023/12/25 02:05:18;;;;;;;1.53;0.60;;;13.90;99.90;;;;;;4993266;28;20029;-86
2023/12/25 02:07:45;;;;;;;1.17;0.40;;;15.50;99.90;;;;;;5004931;28;20338;-88
2023/12/25 02:10:25;;;;;;;1.25;0.63;;;13.90;99.90;;;;;;5001670;28;20026;-84
2023/12/25 02:12:51;;;;;;;1.15;0.60;;;13.90;99.90;;;;;;4986536;28;20029;-87
2023/12/25 02:15:17;;;;;;;1.10;0.50;;;13.90;99.90;;;;;;4995595;28;20386;-88
2023/12/25 02:17:44;;;;;;;1.95;0.50;;;14.00;99.90;;;;;;4992648;28;20530;-87
2023/12/25 02:20:11;;;;;;;0.67;0.50;;;14.00;99.90;;;;;;4990239;28;20049;-87
2023/12/25 02:22:38;;;;;;;1.08;0.40;;;14.00;99.90;;;;;;5026369;28;20063;-87
2023/12/25 02:25:10;;;;;;;0.77;0.50;;;14.00;99.90;;;;;;4985873;28;20494;-87
2023/12/25 02:27:36;;;;;;;0.85;0.47;;;;;;;;;;5021542;28;20029;-87
2023/12/25 02:30:03;;;;;;;1.50;0.40;;;14.00;99.90;;;;;;4996486;28;20037;-88
2023/12/25 02:32:32;;;;;;;0.87;0.50;;;14.00;99.90;;;;;;5028552;28;20323;-85
2023/12/25 02:34:58;;;;;;;1.00;0.40;;;14.00;99.90;;;;;;4992451;28;20017;-88
2023/12/25 02:37:24;;;;;;;0.50;0.40;;;14.10;99.90;;;;;;5000840;28;20045;-84
2023/12/25 02:39:49;;;;;;;0.57;0.30;;;14.10;99.90;;;;;;5021781;28;20518;-85
2023/12/25 02:42:15;;;;;;;0.97;0.40;;;14.10;99.90;;;;;;4996384;28;22010;-87
2023/12/25 02:44:42;;;;;;;1.90;0.40;;;14.10;99.90;;;;;;4998353;28;20307;-85
2023/12/25 02:47:07;;;;;;;0.70;0.50;;;14.20;99.90;;;;;;4997963;28;20638;-87
2023/12/25 02:49:33;;;;;;;1.10;0.43;;;14.20;99.90;;;;;;4999972;28;20118;-86
2023/12/25 02:51:59;;;;;;;0.88;0.50;;;14.20;99.90;;;;;;5004641;28;20502;-86
2023/12/25 02:54:25;;;;;;;0.60;0.30;;;;;;;;;;5015123;28;20355;-86
2023/12/25 02:56:51;;;;;;;1.08;0.40;;;14.30;99.90;;;;;;5003336;28;20065;-87
2023/12/25 02:59:17;;;;;;;0.83;0.40;;;14.30;99.90;;;;;;4999126;28;20117;-85
2023/12/25 03:01:43;;;;;;;0.73;0.40;;;14.30;99.90;;;;;;5001270;28;20040;-85
2023/12/25 03:04:09;;;;;;;1.03;0.40;;;14.30;99.90;;;;;;5001845;28;20033;-86
2023/12/25 03:06:34;;;;;;;1.35;0.40;;;14.30;99.90;;;;;;5019203;28;20025;-86
2023/12/25 03:09:00;;;;;;;1.50;0.40;;;14.40;99.90;;;;;;4998117;28;20021;-88
2023/12/25 03:11:26;;;;;;;1.05;0.50;;;14.40;99.90;;;;;;5007015;28;20602;-85
2023/12/25 03:13:51;;;;;;;1.23;0.30;;;14.40;99.90;;;;;;5030587;28;20080;-86
2023/12/25 03:16:19;;;;;;;0.30;0.30;;;14.40;99.90;;;;;;4989863;28;20272;-86
2023/12/25 03:18:44;;;;;;;0.77;0.40;;;14.40;99.90;;;;;;5017353;28;20036;-86
2023/12/25 03:21:10;;;;;;;0.35;0.35;;;14.40;99.90;;;;;;5011490;28;20037;-86
2023/12/25 03:23:37;;;;;;;0.57;0.40;;;14.40;99.90;;;;;;5001387;28;20116;-87
2023/12/25 03:26:04;;;;;;;0.40;0.40;;;14.40;99.90;;;;;;4996105;28;20034;-85
2023/12/25 03:28:30;;;;;;;0.30;0.30;;;14.40;99.90;;;;;;5007759;28;20096;-85
2023/12/25 03:30:56;;;;;;;0.40;0.40;;;14.30;99.90;;;;;;5007326;28;20119;-88
2023/12/25 03:33:22;;;;;;;0.40;0.40;;;14.30;99.90;;;;;;4982351;28;21030;-87
2023/12/25 03:35:48;;;;;;;0.30;0.30;;;14.30;99.90;;;;;;5025331;28;20033;-85
2023/12/25 03:38:13;;;;;;;0.60;0.40;;;14.80;99.90;;;;;;5005134;28;20025;-88
2023/12/25 03:40:39;;;;;;;0.77;0.45;;;14.20;99.90;;;;;;5016507;28;20040;-86
2023/12/25 03:43:06;;;;;;;0.30;0.30;;;14.20;99.90;;;;;;5020854;28;20025;-86
2023/12/25 03:45:32;;;;;;;0.40;0.40;;;14.20;99.90;;;;;;5007580;28;20532;-83
2023/12/25 03:47:57;;;;;;;1.03;0.40;;;14.10;99.90;;;;;;4997054;28;20037;-87
2023/12/25 03:50:23;;;;;;;0.80;0.40;;;14.10;99.90;;;;;;5014197;28;20013;-86
2023/12/25 03:52:49;;;;;;;0.80;0.40;;;14.10;99.90;;;;;;5020696;28;20072;-86
2023/12/25 03:55:15;;;;;;;0.40;0.40;;;14.10;99.90;;;;;;5022789;28;20075;-88
2023/12/25 03:57:42;;;;;;;0.60;0.45;;;14.00;99.90;;;;;;4997186;28;20040;-88
2023/12/25 04:00:09;;;;;;;0.50;0.50;;;14.00;99.90;;;;;;5013083;28;20062;-86
2023/12/25 04:02:35;;;;;;;0.47;0.47;;;14.00;99.90;;;;;;5001550;28;20121;-86
2023/12/25 04:05:00;;;;;;;0.75;0.52;;;14.00;99.90;;;;;;5033067;28;20132;-87
2023/12/25 04:07:26;;;;;;;0.53;0.50;;;14.00;99.90;;;;;;5018532;28;20266;-89
2023/12/25 04:09:52;;;;;;;4.72;0.60;;;14.00;99.90;;;;;;5018931;28;20075;-86
2023/12/25 04:12:17;;;;;;;0.50;0.50;;;13.90;99.90;;;;;;5008697;28;20297;-88
2023/12/25 04:14:43;;;;;;;0.57;0.57;;;14.00;99.90;;;;;;5014536;28;20474;-88
2023/12/25 04:17:09;;;;;;;0.53;0.53;;;14.00;99.90;;;;;;5016326;28;20075;-86
2023/12/25 04:19:34;;;;;;;0.40;0.40;;;14.00;99.90;;;;;;4982355;28;20055;-87
2023/12/25 04:22:01;;;;;;;0.83;0.60;;;13.90;99.90;;;;;;5013659;28;20033;-86
2023/12/25 04:24:27;;;;;;;0.57;0.50;;;13.70;99.90;;;;;;5000202;28;20706;-87
2023/12/25 04:26:52;;;;;;;0.57;0.40;;;13.90;99.90;;;;;;4989518;28;20307;-86
2023/12/25 04:29:18;;;;;;;0.67;0.60;;;13.90;99.90;;;;;;5013348;28;20021;-85
2023/12/25 04:31:44;;;;;;;0.93;0.60;;;13.90;99.90;;;;;;5004368;28;20080;-87
2023/12/25 04:34:10;;;;;;;0.50;0.40;;;13.90;99.90;;;;;;5008504;28;20083;-86
2023/12/25 04:36:36;;;;;;;0.50;0.50;;;13.80;99.90;;;;;;5017679;28;20271;-89
2023/12/25 04:39:01;;;;;;;0.77;0.50;;;13.90;99.90;;;;;;5022290;28;20025;-86
2023/12/25 04:41:28;;;;;;;0.70;0.50;;;13.90;99.90;;;;;;5001716;28;20052;-88
2023/12/25 04:43:54;;;;;;;0.50;0.50;;;12.80;99.90;;;;;;5024406;28;20656;-84
2023/12/25 04:46:20;;;;;;;0.50;0.47;;;13.90;99.90;;;;;;5016181;28;20038;-85
2023/12/25 04:48:46;;;;;;;0.60;0.60;;;13.80;99.90;;;;;;4990433;28;20554;-86
2023/12/25 04:51:12;;;;;;;0.53;0.53;;;13.80;99.90;;;;;;5048409;28;20032;-87
2023/12/25 04:53:38;;;;;;;0.50;0.50;;;13.90;99.90;;;;;;5022704;28;20009;-88
2023/12/25 04:56:04;;;;;;;0.50;0.50;;;13.80;99.90;;;;;;5043767;28;20025;-86
2023/12/25 04:58:30;;;;;;;0.50;0.50;;;13.80;99.90;;;;;;5021225;28;20053;-88
2023/12/25 05:00:56;;;;;;;0.45;0.45;;;;;;;;;;5033687;28;20044;-87
2023/12/25 05:03:22;;;;;;;0.50;0.50;;;13.90;99.90;;;;;;5010990;28;20089;-89
2023/12/25 05:05:48;;;;;;;0.40;0.40;;;13.80;99.90;;;;;;5009628;28;20072;-88
2023/12/25 05:08:15;;;;;;;0.32;0.32;;;13.80;99.90;;;;;;5041174;28;20033;-89
2023/12/25 05:10:41;;;;;;;0.40;0.40;;;13.80;99.90;;;;;;5055004;28;20033;-88
2023/12/25 05:13:08;;;;;;;0.82;0.40;;;13.80;99.90;;;;;;5037159;28;20033;-88
2023/12/25 05:15:34;;;;;;;0.40;0.40;;;;;;;;;;5035286;28;20118;-90
2023/12/25 05:18:00;;;;;;;0.60;0.50;;;13.70;99.90;;;;;;5040448;28;20152;-89
2023/12/25 05:20:26;;;;;;;0.45;0.40;;;13.70;99.90;;;;;;5016444;28;20025;-86
2023/12/25 05:22:52;;;;;;;0.75;0.50;;;13.80;99.90;;;;;;5028076;28;20142;-85
2023/12/25 05:25:18;;;;;;;0.60;0.50;;;13.80;99.90;;;;;;5016706;28;20029;-88
2023/12/25 05:27:44;;;;;;;0.50;0.50;;;13.70;99.90;;;;;;4989904;28;20079;-89
2023/12/25 05:30:10;;;;;;;0.40;0.40;;;13.70;99.90;;;;;;5015317;28;20021;-89
2023/12/25 05:32:37;;;;;;;0.57;0.40;;;13.70;99.90;;;;;;4990939;28;20394;-90
2023/12/25 05:35:04;;;;;;;0.45;0.40;;;13.70;99.90;;;;;;5006080;28;20735;-88
2023/12/25 05:37:33;;;;;;;0.40;0.40;;;13.70;99.90;;;;;;5000462;28;20446;-89
2023/12/25 05:39:59;;;;;;;0.60;0.30;;;13.70;99.90;;;;;;5013396;28;20540;-85
2023/12/25 05:42:25;;;;;;;0.50;0.50;;;13.70;99.90;;;;;;4995795;28;20402;-89
2023/12/25 05:44:51;;;;;;;0.33;0.33;;;13.70;99.90;;;;;;5011356;28;20021;-84
2023/12/25 05:47:17;;;;;;;0.30;0.30;;;13.70;99.90;;;;;;5012943;28;20546;-90
2023/12/25 05:49:44;;;;;;;0.47;0.40;;;12.80;99.90;;;;;;4986791;28;20205;-88
2023/12/25 05:52:11;;;;;;;0.40;0.40;;;13.70;99.90;;;;;;5025772;28;20020;-89
2023/12/25 05:54:39;;;;;;;0.43;0.43;;;13.70;99.90;;;;;;5005187;28;20084;-90
2023/12/25 05:57:05;;;;;;;0.40;0.40;;;13.70;99.90;;;;;;5027175;28;20292;-87
2023/12/25 05:59:31;;;;;;;0.50;0.40;;;12.20;99.90;;;;;;4971842;28;20763;-88
2023/12/25 06:01:56;;;;;;;0.50;0.40;;;12.70;99.90;;;;;;5005495;28;20027;-86
2023/12/25 06:04:22;;;;;;;0.40;0.40;;;13.60;99.90;;;;;;5018732;28;20040;-87
2023/12/25 06:06:49;;;;;;;0.33;0.33;;;13.60;99.90;;;;;;4974721;28;20689;-91
2023/12/25 06:09:15;;;;;;;0.40;0.40;;;13.60;99.90;;;;;;5028944;28;20040;-88
2023/12/25 06:11:41;;;;;;;0.40;0.40;;;12.80;99.90;;;;;;5000573;28;20024;-87
2023/12/25 06:14:07;;;;;;;0.70;0.40;;;13.60;99.90;;;;;;4983559;28;20276;-87
2023/12/25 06:16:33;;;;;;;0.40;0.40;;;13.70;99.90;;;;;;5020232;28;20664;-87
2023/12/25 06:18:59;;;;;;;0.40;0.40;;;13.60;99.90;;;;;;5004399;28;20720;-88
2023/12/25 06:21:24;;;;;;;0.40;0.37;;;13.60;99.90;;;;;;5018732;28;20029;-86
2023/12/25 06:23:50;;;;;;;0.82;0.50;;;13.60;99.90;;;;;;4990760;28;20368;-87
2023/12/25 06:26:16;;;;;;;0.43;0.40;;;13.70;99.90;;;;;;5013588;28;20024;-89
2023/12/25 06:28:42;;;;;;;0.53;0.40;;;13.60;99.90;;;;;;5024877;28;20673;-89
2023/12/25 06:31:08;;;;;;;0.40;0.40;;;13.60;99.90;;;;;;5008671;28;20185;-89
2023/12/25 06:33:33;;;;;;;0.40;0.40;;;13.60;99.90;;;;;;4990113;28;20422;-90
2023/12/25 06:35:59;;;;;;;0.30;0.30;;;13.20;99.90;;;;;;4985641;28;20347;-86
2023/12/25 06:38:25;;;;;;;0.30;0.30;;;13.70;99.90;;;;;;5011052;28;20633;-91
2023/12/25 06:40:52;;;;;;;0.40;0.40;;;13.60;99.90;;;;;;5002897;28;20049;-87
2023/12/25 06:43:18;;;;;;;0.32;0.30;;;13.70;99.90;;;;;;4995188;28;20079;-87
2023/12/25 06:45:44;;;;;;;0.40;0.40;;;;;;;;;;4999260;28;20407;-91
2023/12/25 06:48:10;;;;;;;0.50;0.40;;;13.70;99.90;;;;;;5009623;28;20060;-88
2023/12/25 06:50:38;;;;;;;0.30;0.30;;;13.70;99.90;;;;;;5010980;28;20026;-91
2023/12/25 06:53:05;;;;;;;0.40;0.40;;;;;;;;;;4996807;28;20440;-88
2023/12/25 06:55:31;;;;;;;0.40;0.40;;;13.70;99.90;;;;;;5002106;28;20095;-89
2023/12/25 06:57:57;;;;;;;0.30;0.30;;;;;;;;;;5015432;28;20041;-86
2023/12/25 07:00:23;;;;;;;0.52;0.40;;;13.70;99.90;;;;;;4990706;28;20124;-90
2023/12/25 07:02:50;;;;;;;0.32;0.32;;;13.70;99.90;;;;;;4990095;28;20033;-90
2023/12/25 07:05:16;;;;;;;0.50;0.50;;;13.70;99.90;;;;;;4993970;28;20029;-88
2023/12/25 07:07:43;;;;;;;0.45;0.40;;;13.70;99.90;;;;;;5011222;28;20530;-93
2023/12/25 07:10:09;;;;;;;0.50;0.50;;;13.70;99.90;;;;;;4994024;28;20498;-85
2023/12/25 07:12:35;;;;;;;0.40;0.40;;;13.70;99.90;;;;;;5017937;28;20037;-88
2023/12/25 07:15:01;;;;;;;0.43;0.43;;;13.80;99.90;;;;;;5014696;28;20032;-87
2023/12/25 07:17:26;;;;;;;0.50;0.40;;;13.70;99.90;;;;;;4975935;28;20052;-87
2023/12/25 07:19:52;;;;;;;0.30;0.30;;;13.80;99.90;;;;;;5016656;28;20033;-89
2023/12/25 07:22:18;;;;;;;0.30;0.30;;;13.80;99.90;;;;;;4998495;28;20017;-91
2023/12/25 07:24:44;;;;;;;0.27;0.27;;;13.80;99.90;;;;;;5004051;28;20036;-91
2023/12/25 07:27:10;;;;;;;0.30;0.30;;;13.80;99.90;;;;;;5011492;28;20031;-88
2023/12/25 07:29:36;;;;;;;0.40;0.40;;;13.70;99.90;;;;;;5004770;28;20025;-89
2023/12/25 07:32:02;;;;;;;0.40;0.40;;;13.80;99.90;;;;;;4981343;28;20278;-88
2023/12/25 07:34:28;;;;;;;0.60;0.40;;;13.80;99.90;;;;;;5012835;28;20264;-90
2023/12/25 07:36:54;;;;;;;0.47;0.40;;;13.80;99.90;;;;;;4987450;28;20029;-90
2023/12/25 07:39:20;;;;;;;0.40;0.40;;;13.80;99.90;;;;;;4969387;28;20088;-86
2023/12/25 07:41:46;;;;;;;0.40;0.40;;;13.80;99.90;;;;;;4999317;28;20041;-89
2023/12/25 07:44:12;;;;;;;0.40;0.40;;;13.80;99.90;;;;;;5005577;28;20127;-88
2023/12/25 07:46:38;;;;;;;0.47;0.40;;;13.80;99.90;;;;;;5004321;28;20701;-87
2023/12/25 07:49:04;;;;;;;0.40;0.40;;;13.80;99.90;;;;;;4995135;28;20235;-88
2023/12/25 07:51:30;;;;;;;0.40;0.40;;;13.80;99.90;;;;;;4997497;28;20025;-89
2023/12/25 07:53:56;;;;;;;0.50;0.50;;;12.60;99.90;;;;;;5005246;28;25760;-88
2023/12/25 07:56:21;;;;;;;0.60;0.50;;;13.80;99.90;;;;;;5023126;28;20034;-90
2023/12/25 07:58:47;;;;;;;0.30;0.30;;;13.80;99.90;;;;;;5029534;28;20041;-88
2023/12/25 08:01:13;;;;;;;0.40;0.40;;;13.80;99.90;;;;;;5001863;28;20122;-89
2023/12/25 08:03:39;;;;;;;0.40;0.40;;;13.80;99.90;;;;;;4991121;28;20471;-90
2023/12/25 08:06:05;;;;;;;0.40;0.40;;;13.90;99.90;;;;;;4997541;28;20147;-89
2023/12/25 08:08:31;;;;;;;0.40;0.40;;;13.80;99.90;;;;;;5002605;28;20029;-91
2023/12/25 08:10:57;;;;;;;0.40;0.40;;;13.80;99.90;;;;;;5001141;28;20200;-89
2023/12/25 08:13:23;;;;;;;0.30;0.30;;;13.80;99.90;;;;;;5010811;28;20021;-90
2023/12/25 08:15:49;;;;;;;0.35;0.30;;;13.80;99.90;;;;;;5005042;28;20024;-89
2023/12/25 08:18:15;;;;;;;0.80;0.30;;;13.80;99.90;;;;;;4989955;28;20029;-90
2023/12/25 08:20:43;;;;;;;0.40;0.40;;;13.80;99.90;;;;;;4994220;28;20103;-91
2023/12/25 08:23:09;;;;;;;0.32;0.32;;;13.80;99.90;;;;;;4992091;28;20039;-91
2023/12/25 08:25:35;;;;;;;0.40;0.40;;;13.80;99.90;;;;;;5007394;28;20033;-88
2023/12/25 08:28:01;;;;;;;0.30;0.30;;;13.80;99.90;;;;;;5012816;28;20114;-91
2023/12/25 08:30:27;;;;;;;0.30;0.30;;;13.80;99.90;;;;;;5029640;28;20234;-89
2023/12/25 08:32:53;;;;;;;0.30;0.30;;;13.80;99.90;;;;;;5021448;28;20269;-89
2023/12/25 08:35:18;;;;;;;0.30;0.30;;;15.00;99.90;;;;;;5000468;28;20759;-88
2023/12/25 08:37:44;;;;;;;0.65;0.40;;;13.80;99.90;;;;;;5012657;28;20120;-86
2023/12/25 08:40:10;;;;;;;0.30;0.30;;;13.80;99.90;;;;;;4998656;28;20075;-90
2023/12/25 08:42:36;;;;;;;0.30;0.30;;;13.80;99.90;;;;;;5006766;28;20071;-91
2023/12/25 08:45:04;;;;;;;0.40;0.40;;;13.80;99.90;;;;;;5028129;28;20060;-83
2023/12/25 08:47:30;;;;;;;0.30;0.30;;;13.80;99.90;;;;;;4991763;28;20403;-91
2023/12/25 08:49:55;;;;;;;0.43;0.43;;;13.80;99.90;;;;;;5007494;28;20104;-89
2023/12/25 08:52:21;;;;;;;1.00;0.50;;;13.80;99.90;;;;;;4980563;28;20433;-86
2023/12/25 08:54:48;;;;;;;0.40;0.40;;;13.90;99.90;;;;;;5014711;28;20076;-90
2023/12/25 08:57:14;;;;;;;0.60;0.40;;;13.70;99.90;;;;;;5003535;28;20474;-87
2023/12/25 08:59:40;;;;;;;0.40;0.40;;;13.80;99.90;;;;;;5013928;28;20563;-86
2023/12/25 09:02:06;;;;;;;0.30;0.30;;;13.70;99.90;;;;;;5013258;28;20180;-86
2023/12/25 09:04:32;;;;;;;0.60;0.47;;;13.80;99.90;;;;;;5003938;28;20462;-88
2023/12/25 09:06:58;;;;;;;0.30;0.30;;;13.80;99.90;;;;;;5008956;28;20473;-87
2023/12/25 09:09:25;;;;;;;0.37;0.33;;;13.90;99.90;;;;;;5006948;28;20517;-87
2023/12/25 09:11:51;;;;;;;0.30;0.30;;;13.90;99.90;;;;;;5001559;28;20017;-89
2023/12/25 09:14:17;;;;;;;0.50;0.50;;;13.90;99.90;;;;;;4994603;28;20037;-88
2023/12/25 09:16:43;;;;;;;0.30;0.30;;;13.90;99.90;;;;;;5001505;28;20483;-86
2023/12/25 09:19:08;;;;;;;0.40;0.40;;;13.90;99.90;;;;;;5008246;28;20659;-89
2023/12/25 09:21:40;;;;;;;0.77;0.40;;;14.00;99.90;;;;;;4991525;28;20036;-88
2023/12/25 09:24:07;;;;;;;0.40;0.40;;;14.00;99.90;;;;;;4981251;28;20630;-92
2023/12/25 09:26:33;;;;;;;0.60;0.47;;;14.00;99.90;;;;;;4998601;28;20402;-87
2023/12/25 09:28:59;;;;;;;0.40;0.40;;;14.00;99.90;;;;;;4996807;28;20029;-87
2023/12/25 09:31:25;;;;;;;0.40;0.38;;;14.00;99.90;;;;;;4984883;28;20441;-86
2023/12/25 09:33:51;;;;;;;0.40;0.40;;;14.10;99.90;;;;;;5029249;28;20033;-89
2023/12/25 09:36:17;;;;;;;0.40;0.40;;;14.20;99.90;;;;;;4996633;28;20072;-87
2023/12/25 09:38:42;;;;;;;0.50;0.50;;;14.10;99.90;;;;;;4999890;28;21035;-86
2023/12/25 09:41:11;;;;;;;0.30;0.30;;;14.10;99.90;;;;;;5005636;28;20037;-88
2023/12/25 09:43:45;;;;;;;0.30;0.30;;;12.50;99.90;;;;;;4974950;28;20688;-87
2023/12/25 09:46:11;;;;;;;0.43;0.43;;;14.20;99.90;;;;;;5015126;28;20570;-87
2023/12/25 09:48:38;;;;;;;1.30;0.40;;;14.20;99.90;;;;;;5012364;28;20111;-86
2023/12/25 09:51:05;;;;;;;0.30;0.30;;;14.20;99.90;;;;;;4988967;28;20486;-86
2023/12/25 09:53:31;;;;;;;0.30;0.30;;;14.00;99.90;;;;;;4997373;28;20059;-87
2023/12/25 09:56:00;;;;;;;0.40;0.40;;;14.20;99.90;;;;;;4998513;28;20021;-88
2023/12/25 09:58:27;;;;;;;0.53;0.40;;;15.90;99.90;;;;;;4985706;28;20029;-86
2023/12/25 10:00:55;;;;;;;0.38;0.38;;;14.20;99.90;;;;;;5003630;28;20403;-86
2023/12/25 10:03:21;;;;;;;0.50;0.45;;;13.70;99.90;;;;;;5016048;28;20246;-86
2023/12/25 10:05:47;;;;;;;0.30;0.30;;;14.30;99.90;;;;;;4989688;28;20067;-87
2023/12/25 10:08:13;;;;;;;0.40;0.40;;;14.20;99.90;;;;;;5013856;28;20445;-86
2023/12/25 10:10:39;;;;;;;0.40;0.40;;;14.30;99.90;;;;;;4998216;28;20393;-86
2023/12/25 10:13:05;;;;;;;0.30;0.30;;;14.30;99.90;;;;;;4976950;28;20077;-85
2023/12/25 10:15:30;;;;;;;0.40;0.40;;;14.30;99.90;;;;;;5001411;28;20472;-86
2023/12/25 10:18:07;;;;;;;0.40;0.40;;;14.30;99.90;;;;;;5019215;28;20032;-88
2023/12/25 10:20:33;;;;;;;0.70;0.40;;;12.00;99.90;;;;;;5014968;28;20422;-87
2023/12/25 10:23:00;;;;;;;0.82;0.40;;;14.30;99.90;;;;;;4999354;28;20558;-90
2023/12/25 10:25:28;;;;;;;0.68;0.40;;;14.40;99.90;;;;;;4997755;28;20756;-88
2023/12/25 10:27:54;;;;;;;1.05;0.60;;;14.30;99.90;;;;;;4992585;28;20029;-88
2023/12/25 10:30:21;;;;;;;0.37;0.37;;;14.40;99.90;;;;;;5014547;28;20254;-87
2023/12/25 10:32:48;;;;;;;0.65;0.50;;;14.40;99.90;;;;;;5017897;28;20037;-87
2023/12/25 10:35:18;;;;;;;0.40;0.40;;;14.40;99.90;;;;;;5005917;28;20115;-87
2023/12/25 10:37:47;;;;;;;0.40;0.40;;;15.30;99.90;;;;;;4995539;28;20032;-86
2023/12/25 10:40:23;;;;;;;0.30;0.30;;;14.40;99.90;;;;;;4992861;28;20099;-86
2023/12/25 10:42:55;;;;;;;0.40;0.40;;;14.40;99.90;;;;;;4988511;28;20033;-89
2023/12/25 10:45:26;;;;;;;0.47;0.47;;;14.40;99.90;;;;;;4977516;28;25807;-86
2023/12/25 10:47:54;;;;;;;1.55;0.50;;;14.40;99.90;;;;;;5008110;28;20039;-86
2023/12/25 10:50:22;;;;;;;0.50;0.50;;;14.40;99.90;;;;;;5005358;28;20037;-87
2023/12/25 10:52:52;;;;;;;1.05;0.50;;;14.40;99.90;;;;;;4996923;28;20022;-87
2023/12/25 10:55:43;;;;;;;0.70;0.60;;;14.40;99.90;;;;;;4998118;28;20024;-87
2023/12/25 10:58:11;;;;;;;1.15;0.50;;;14.40;99.90;;;;;;4961287;28;20083;-84
2023/12/25 11:00:45;;;;;;;0.40;0.40;;;13.80;99.90;;;;;;4980037;28;20033;-85
2023/12/25 11:03:14;;;;;;;0.80;0.50;;;14.40;99.90;;;;;;4994006;28;20407;-88
2023/12/25 11:05:40;;;;;;;0.90;0.50;;;14.50;99.90;;;;;;5017266;28;20564;-87
2023/12/25 11:08:06;;;;;;;0.50;0.40;;;14.50;99.90;;;;;;5018707;28;20083;-85
2023/12/25 11:10:32;;;;;;;0.68;0.60;;;14.50;99.90;;;;;;5018607;28;20029;-86
2023/12/25 11:12:59;;;;;;;0.60;0.60;;;14.40;99.90;;;;;;4992528;28;20307;-87
2023/12/25 11:15:25;;;;;;;0.77;0.60;;;14.40;99.90;;;;;;5030768;28;20028;-90
2023/12/25 11:17:51;;;;;;;0.47;0.47;;;14.40;99.90;;;;;;4983976;28;20236;-85
2023/12/25 11:20:17;;;;;;;0.50;0.50;;;14.50;99.90;;;;;;5004093;28;20037;-86
2023/12/25 11:22:47;;;;;;;0.80;0.55;;;14.40;99.90;;;;;;5002040;28;20038;-86
2023/12/25 11:25:20;;;;;;;0.50;0.50;;;14.80;99.90;;;;;;4989169;28;20040;-87
2023/12/25 11:27:54;;;;;;;0.68;0.40;;;13.70;99.90;;;;;;5006334;28;20693;-87
2023/12/25 11:30:23;;;;;;;0.43;0.40;;;14.40;99.90;;;;;;4986733;28;20021;-87
2023/12/25 11:32:50;;;;;;;0.57;0.57;;;15.30;99.90;;;;;;4998251;28;20049;-85
2023/12/25 11:35:28;;;;;;;1.33;0.80;;;14.40;99.90;;;;;;5004137;28;20029;-87
2023/12/25 11:38:33;;;;;;;1.30;0.70;;;14.50;99.90;;;;;;4997183;28;20277;-87
2023/12/25 11:41:01;;;;;;;0.80;0.70;;;14.50;99.90;;;;;;5006231;28;20075;-85
2023/12/25 11:43:30;;;;;;;2.03;0.93;;;13.90;99.90;;;;;;5000369;28;20029;-87
2023/12/25 11:45:56;;;;;;;1.42;0.70;;;14.40;99.90;;;;;;5031046;28;20450;-86
2023/12/25 11:48:23;;;;;;;2.03;1.00;;;14.40;99.90;;;;;;4998545;28;20030;-88
2023/12/25 11:50:59;;;;;;;0.95;0.77;;;14.40;99.90;;;;;;5024193;28;20025;-87
2023/12/25 11:53:39;;;;;;;1.33;0.80;;;14.40;99.90;;;;;;5000362;28;20212;-87
2023/12/25 11:56:08;;;;;;;1.52;0.90;;;14.30;99.90;;;;;;5024881;28;20029;-88
2023/12/25 11:58:35;;;;;;;1.90;1.10;;;14.30;99.90;;;;;;4997597;28;20147;-86
2023/12/25 12:01:01;;;;;;;1.00;0.90;;;14.20;99.90;;;;;;4991477;28;20033;-87
2023/12/25 12:03:28;;;;;;;1.05;0.90;;;14.30;99.90;;;;;;4984700;28;20841;-87
2023/12/25 12:05:54;;;;;;;1.17;1.00;;;14.30;99.90;;;;;;5011359;28;20041;-87
2023/12/25 12:08:20;;;;;;;0.98;0.88;;;14.30;99.90;;;;;;5010581;28;20041;-88
2023/12/25 12:10:46;;;;;;;1.45;1.20;;;14.20;99.90;;;;;;5012748;28;20021;-86
2023/12/25 12:13:12;;;;;;;2.03;1.07;;;14.20;99.90;;;;;;5000790;28;20033;-88
2023/12/25 12:15:38;;;;;;;1.20;1.00;;;14.20;99.90;;;;;;5004676;28;20301;-86
2023/12/25 12:18:05;;;;;;;1.38;1.10;;;14.20;99.90;;;;;;5009133;28;20032;-87
2023/12/25 12:20:31;;;;;;;1.60;1.20;;;14.20;99.90;;;;;;5004199;28;20213;-86
2023/12/25 12:22:57;;;;;;;1.57;1.20;;;14.20;99.90;;;;;;4998359;28;20092;-87
2023/12/25 12:25:23;;;;;;;1.33;1.10;;;14.20;99.90;;;;;;5029904;28;20740;-86
2023/12/25 12:27:49;;;;;;;1.15;0.98;;;14.20;99.90;;;;;;5009666;28;20025;-86
2023/12/25 12:30:16;;;;;;;1.33;1.02;;;13.60;99.90;;;;;;4987902;28;20494;-87
2023/12/25 12:32:42;;;;;;;1.57;1.10;;;14.20;99.90;;;;;;5019487;28;20418;-85
2023/12/25 12:35:08;;;;;;;2.15;0.80;;;14.20;99.90;;;;;;5015250;28;20030;-86
2023/12/25 12:37:35;;;;;;;3.58;1.10;;;14.20;99.90;;;;;;5014389;28;20427;-85
2023/12/25 12:40:05;;;;;;;0.98;0.88;;;14.20;99.90;;;;;;5030396;28;20083;-86
2023/12/25 12:42:35;;;;;;;1.57;0.90;;;14.20;99.90;;;;;;5018162;28;20563;-88
2023/12/25 12:45:01;;;;;;;1.50;0.90;;;14.20;99.90;;;;;;5005023;28;20068;-88
2023/12/25 12:47:27;;;;;;;0.95;0.80;;;14.20;99.90;;;;;;4983290;28;20750;-86